createdAt,value
2019-05-17T00:00:07.731Z,0.00
2019-05-17T00:01:07.742Z,0.00
2019-05-17T00:02:07.735Z,0.00
2019-05-17T00:03:07.735Z,0.00
2019-05-17T00:04:07.690Z,0.00
2019-05-17T00:05:07.679Z,0.00
2019-05-17T00:06:08.340Z,0.00
2019-05-17T00:07:07.680Z,0.00
2019-05-17T00:08:07.923Z,0.00
2019-05-17T00:09:07.638Z,0.00
2019-05-17T00:10:07.631Z,0.00
2019-05-17T00:11:07.609Z,0.00
2019-05-17T00:12:08.836Z,0.00
2019-05-17T00:13:10.971Z,0.00
2019-05-17T00:14:08.578Z,0.00
2019-05-17T00:15:07.568Z,0.00
2019-05-17T00:16:07.564Z,0.00
2019-05-17T00:17:07.574Z,0.00
2019-05-17T00:18:07.537Z,0.00
2019-05-17T00:19:07.676Z,0.00
2019-05-17T00:20:07.521Z,0.00
2019-05-17T00:21:07.858Z,0.00
2019-05-17T00:22:07.577Z,0.00
2019-05-17T00:23:07.491Z,0.00
2019-05-17T00:24:07.500Z,0.00
2019-05-17T00:25:07.625Z,0.00
2019-05-17T00:26:07.466Z,0.00
2019-05-17T00:27:07.467Z,0.00
2019-05-17T00:28:07.564Z,0.00
2019-05-17T00:29:07.418Z,0.00
2019-05-17T00:30:07.413Z,0.00
2019-05-17T00:31:07.405Z,0.00
2019-05-17T00:32:07.417Z,0.00
2019-05-17T00:33:08.059Z,0.00
2019-05-17T00:34:07.500Z,0.00
2019-05-17T00:35:07.612Z,0.00
2019-05-17T00:36:07.345Z,0.00
2019-05-17T00:37:07.380Z,0.00
2019-05-17T00:38:07.325Z,0.00
2019-05-17T00:39:08.293Z,0.00
2019-05-17T00:40:07.475Z,0.00
2019-05-17T00:41:07.301Z,0.00
2019-05-17T00:42:07.321Z,0.00
2019-05-17T00:43:07.270Z,0.00
2019-05-17T00:44:07.260Z,0.00
2019-05-17T00:45:07.250Z,0.00
2019-05-17T00:46:07.812Z,0.00
2019-05-17T00:47:07.278Z,0.00
2019-05-17T00:48:07.219Z,0.00
2019-05-17T00:49:07.208Z,0.00
2019-05-17T00:50:07.540Z,0.00
2019-05-17T00:51:10.091Z,0.00
2019-05-17T00:52:07.424Z,0.00
2019-05-17T00:53:07.548Z,0.00
2019-05-17T00:54:07.155Z,0.00
2019-05-17T00:55:07.155Z,0.00
2019-05-17T00:56:07.133Z,0.00
2019-05-17T00:57:07.645Z,0.00
2019-05-17T00:58:07.120Z,0.00
2019-05-17T00:59:07.504Z,0.00
2019-05-17T01:00:08.576Z,0.00
2019-05-17T01:01:08.251Z,0.00
2019-05-17T01:02:07.218Z,0.00
2019-05-17T01:03:07.378Z,0.00
2019-05-17T01:04:07.057Z,0.00
2019-05-17T01:05:07.042Z,0.00
2019-05-17T01:06:07.034Z,0.00
2019-05-17T01:07:07.089Z,0.00
2019-05-17T01:08:07.516Z,0.00
2019-05-17T01:09:07.778Z,0.00
2019-05-17T01:10:07.107Z,0.00
2019-05-17T01:11:07.896Z,0.00
2019-05-17T01:12:07.249Z,0.00
2019-05-17T01:13:07.128Z,0.00
2019-05-17T01:14:06.998Z,0.00
2019-05-17T01:15:07.583Z,0.00
2019-05-17T01:16:07.447Z,0.00
2019-05-17T01:17:07.301Z,0.00
2019-05-17T01:18:07.446Z,0.00
2019-05-17T01:19:07.018Z,0.00
2019-05-17T01:20:07.010Z,0.00
2019-05-17T01:21:06.879Z,0.00
2019-05-17T01:22:07.503Z,0.00
2019-05-17T01:23:07.602Z,0.00
2019-05-17T01:24:07.948Z,0.00
2019-05-17T01:25:06.830Z,0.00
2019-05-17T01:26:07.509Z,0.00
2019-05-17T01:27:06.849Z,0.00
2019-05-17T01:28:07.535Z,0.00
2019-05-17T01:29:06.937Z,0.00
2019-05-17T01:30:06.931Z,0.00
2019-05-17T01:31:07.564Z,0.00
2019-05-17T01:32:06.969Z,0.00
2019-05-17T01:33:06.986Z,0.00
2019-05-17T01:34:07.421Z,0.00
2019-05-17T01:35:07.399Z,0.00
2019-05-17T01:36:07.344Z,0.00
2019-05-17T01:37:06.769Z,0.00
2019-05-17T01:38:07.277Z,0.00
2019-05-17T01:39:15.224Z,0.00
2019-05-17T01:40:07.677Z,0.00
2019-05-17T01:41:07.061Z,0.00
2019-05-17T01:42:06.837Z,0.00
2019-05-17T01:43:07.875Z,0.00
2019-05-17T01:44:07.507Z,0.00
2019-05-17T01:45:07.248Z,0.00
2019-05-17T01:46:06.865Z,0.00
2019-05-17T01:47:07.426Z,0.00
2019-05-17T01:48:07.281Z,0.00
2019-05-17T01:49:06.975Z,0.00
2019-05-17T01:50:07.435Z,0.00
2019-05-17T01:51:07.535Z,0.00
2019-05-17T01:52:07.530Z,0.00
2019-05-17T01:53:07.331Z,0.00
2019-05-17T01:54:06.936Z,0.00
2019-05-17T01:55:06.709Z,0.00
2019-05-17T01:56:06.577Z,0.00
2019-05-17T01:57:07.291Z,0.00
2019-05-17T01:58:07.346Z,0.00
2019-05-17T01:59:06.956Z,0.00
2019-05-17T02:00:06.505Z,0.00
2019-05-17T02:01:07.606Z,0.00
2019-05-17T02:02:07.132Z,0.00
2019-05-17T02:03:07.069Z,0.00
2019-05-17T02:04:06.754Z,0.00
2019-05-17T02:05:06.601Z,0.00
2019-05-17T02:06:07.493Z,0.00
2019-05-17T02:07:06.940Z,0.00
2019-05-17T02:08:06.754Z,0.00
2019-05-17T02:09:06.501Z,0.00
2019-05-17T02:10:07.480Z,0.00
2019-05-17T02:11:07.076Z,0.00
2019-05-17T02:12:06.747Z,0.00
2019-05-17T02:13:06.732Z,0.00
2019-05-17T02:14:07.008Z,0.00
2019-05-17T02:15:06.929Z,0.00
2019-05-17T02:16:07.136Z,0.00
2019-05-17T02:17:06.831Z,0.00
2019-05-17T02:18:07.089Z,0.00
2019-05-17T02:19:06.716Z,0.00
2019-05-17T02:20:06.472Z,0.00
2019-05-17T02:21:06.612Z,0.00
2019-05-17T02:22:07.468Z,0.00
2019-05-17T02:23:07.572Z,0.00
2019-05-17T02:24:07.981Z,0.00
2019-05-17T02:25:07.310Z,0.00
2019-05-17T02:26:06.681Z,0.00
2019-05-17T02:27:06.191Z,0.00
2019-05-17T02:28:06.196Z,0.00
2019-05-17T02:29:06.154Z,0.00
2019-05-17T02:30:06.152Z,0.00
2019-05-17T02:31:06.148Z,0.00
2019-05-17T02:32:06.128Z,0.00
2019-05-17T02:33:06.133Z,0.00
2019-05-17T02:34:06.102Z,0.00
2019-05-17T02:35:06.095Z,0.00
2019-05-17T02:36:06.081Z,0.00
2019-05-17T02:37:06.170Z,0.00
2019-05-17T02:38:06.197Z,0.00
2019-05-17T02:39:06.049Z,0.00
2019-05-17T02:40:08.381Z,0.00
2019-05-17T02:41:06.062Z,0.00
2019-05-17T02:42:06.024Z,0.00
2019-05-17T02:43:06.646Z,0.00
2019-05-17T02:44:06.002Z,0.00
2019-05-17T02:45:05.995Z,0.00
2019-05-17T02:46:05.983Z,0.00
2019-05-17T02:47:05.965Z,0.00
2019-05-17T02:48:05.986Z,0.00
2019-05-17T02:49:06.094Z,0.00
2019-05-17T02:50:06.075Z,0.00
2019-05-17T02:51:05.924Z,0.00
2019-05-17T02:52:05.927Z,0.00
2019-05-17T02:53:05.932Z,0.00
2019-05-17T02:54:05.892Z,0.00
2019-05-17T02:55:05.882Z,0.00
2019-05-17T02:56:07.150Z,0.00
2019-05-17T02:57:05.867Z,4.00
2019-05-17T02:58:05.888Z,4.00
2019-05-17T02:59:05.842Z,0.00
2019-05-17T03:00:05.838Z,4.00
2019-05-17T03:01:05.817Z,4.00
2019-05-17T03:02:06.549Z,4.00
2019-05-17T03:03:05.802Z,4.00
2019-05-17T03:04:05.819Z,4.00
2019-05-17T03:05:05.784Z,4.00
2019-05-17T03:06:05.768Z,8.00
2019-05-17T03:07:05.777Z,4.00
2019-05-17T03:08:05.744Z,8.00
2019-05-17T03:09:05.759Z,8.00
2019-05-17T03:10:18.149Z,8.00
2019-05-17T03:11:06.735Z,12.00
2019-05-17T03:12:05.701Z,12.00
2019-05-17T03:13:05.692Z,12.00
2019-05-17T03:14:05.708Z,16.00
2019-05-17T03:15:05.670Z,16.00
2019-05-17T03:16:05.659Z,16.00
2019-05-17T03:17:05.650Z,20.00
2019-05-17T03:18:05.638Z,20.00
2019-05-17T03:19:05.656Z,24.00
2019-05-17T03:20:05.617Z,28.00
2019-05-17T03:21:05.614Z,28.00
2019-05-17T03:22:07.740Z,28.00
2019-05-17T03:23:05.605Z,32.00
2019-05-17T03:24:05.608Z,40.00
2019-05-17T03:25:05.565Z,40.00
2019-05-17T03:26:05.555Z,44.00
2019-05-17T03:27:05.553Z,44.00
2019-05-17T03:28:05.539Z,48.00
2019-05-17T03:29:05.552Z,52.00
2019-05-17T03:30:05.524Z,56.00
2019-05-17T03:31:08.537Z,60.00
2019-05-17T03:32:08.333Z,64.00
2019-05-17T03:33:07.783Z,68.00
2019-05-17T03:34:06.989Z,68.00
2019-05-17T03:35:07.428Z,76.00
2019-05-17T03:36:07.446Z,80.00
2019-05-17T03:37:06.973Z,84.00
2019-05-17T03:38:05.429Z,84.00
2019-05-17T03:39:05.444Z,88.00
2019-05-17T03:40:23.631Z,92.00
2019-05-17T03:41:17.753Z,100.00
2019-05-17T03:42:06.386Z,100.00
2019-05-17T03:43:05.375Z,108.00
2019-05-17T03:44:05.405Z,104.00
2019-05-17T03:45:05.354Z,108.00
2019-05-17T03:46:05.344Z,108.00
2019-05-17T03:47:05.345Z,104.00
2019-05-17T03:48:05.465Z,104.00
2019-05-17T03:49:05.343Z,104.00
2019-05-17T03:50:05.310Z,104.00
2019-05-17T03:51:05.293Z,108.00
2019-05-17T03:52:05.281Z,108.00
2019-05-17T03:53:05.279Z,112.00
2019-05-17T03:54:05.288Z,116.00
2019-05-17T03:55:05.250Z,124.00
2019-05-17T03:56:05.238Z,128.00
2019-05-17T03:57:05.914Z,128.00
2019-05-17T03:58:05.222Z,132.00
2019-05-17T03:59:05.234Z,136.00
2019-05-17T04:00:05.194Z,140.00
2019-05-17T04:01:05.186Z,144.00
2019-05-17T04:02:05.178Z,144.00
2019-05-17T04:03:05.179Z,144.00
2019-05-17T04:04:05.184Z,152.00
2019-05-17T04:05:05.222Z,156.00
2019-05-17T04:06:05.145Z,164.00
2019-05-17T04:07:05.130Z,168.00
2019-05-17T04:08:05.110Z,168.00
2019-05-17T04:09:05.138Z,172.00
2019-05-17T04:10:05.103Z,180.00
2019-05-17T04:11:20.429Z,180.00
2019-05-17T04:12:06.088Z,184.00
2019-05-17T04:13:05.060Z,188.00
2019-05-17T04:14:05.086Z,192.00
2019-05-17T04:15:05.039Z,196.00
2019-05-17T04:16:08.880Z,200.00
2019-05-17T04:17:05.026Z,208.00
2019-05-17T04:18:05.029Z,216.00
2019-05-17T04:19:04.996Z,220.00
2019-05-17T04:20:05.010Z,224.00
2019-05-17T04:21:04.974Z,232.00
2019-05-17T04:22:04.991Z,236.00
2019-05-17T04:23:04.964Z,248.00
2019-05-17T04:24:04.941Z,256.00
2019-05-17T04:25:04.959Z,268.00
2019-05-17T04:26:04.924Z,280.00
2019-05-17T04:27:04.912Z,292.00
2019-05-17T04:28:04.902Z,304.00
2019-05-17T04:29:04.911Z,316.00
2019-05-17T04:30:05.861Z,328.00
2019-05-17T04:31:04.890Z,340.00
2019-05-17T04:32:04.870Z,348.00
2019-05-17T04:33:05.478Z,356.00
2019-05-17T04:34:04.838Z,368.00
2019-05-17T04:35:04.859Z,376.00
2019-05-17T04:36:04.817Z,388.00
2019-05-17T04:37:05.794Z,400.00
2019-05-17T04:38:04.809Z,408.00
2019-05-17T04:39:04.785Z,416.00
2019-05-17T04:40:04.800Z,428.00
2019-05-17T04:41:04.763Z,432.00
2019-05-17T04:42:04.755Z,436.00
2019-05-17T04:43:04.744Z,436.00
2019-05-17T04:44:04.738Z,440.00
2019-05-17T04:45:04.744Z,440.00
2019-05-17T04:46:04.737Z,440.00
2019-05-17T04:47:04.702Z,440.00
2019-05-17T04:48:05.355Z,440.00
2019-05-17T04:49:04.681Z,444.00
2019-05-17T04:50:04.698Z,444.00
2019-05-17T04:51:04.660Z,444.00
2019-05-17T04:52:05.517Z,448.00
2019-05-17T04:53:04.637Z,452.00
2019-05-17T04:54:04.627Z,468.00
2019-05-17T04:55:04.677Z,476.00
2019-05-17T04:56:05.407Z,484.00
2019-05-17T04:57:04.596Z,488.00
2019-05-17T04:58:04.600Z,492.00
2019-05-17T04:59:04.575Z,492.00
2019-05-17T05:00:04.614Z,488.00
2019-05-17T05:01:04.617Z,484.00
2019-05-17T05:02:05.517Z,484.00
2019-05-17T05:03:04.671Z,488.00
2019-05-17T05:04:04.538Z,488.00
2019-05-17T05:05:04.547Z,492.00
2019-05-17T05:06:04.502Z,492.00
2019-05-17T05:07:04.491Z,504.00
2019-05-17T05:08:04.500Z,508.00
2019-05-17T05:09:05.419Z,512.00
2019-05-17T05:10:04.501Z,508.00
2019-05-17T05:11:04.544Z,508.00
2019-05-17T05:12:06.246Z,508.00
2019-05-17T05:13:04.428Z,512.00
2019-05-17T05:14:04.416Z,516.00
2019-05-17T05:15:04.429Z,516.00
2019-05-17T05:16:04.395Z,520.00
2019-05-17T05:17:05.054Z,524.00
2019-05-17T05:18:04.376Z,532.00
2019-05-17T05:19:04.976Z,540.00
2019-05-17T05:20:04.386Z,540.00
2019-05-17T05:21:04.363Z,540.00
2019-05-17T05:22:04.846Z,544.00
2019-05-17T05:23:05.105Z,548.00
2019-05-17T05:24:04.336Z,556.00
2019-05-17T05:25:04.299Z,568.00
2019-05-17T05:26:04.890Z,576.00
2019-05-17T05:27:04.279Z,580.00
2019-05-17T05:28:04.270Z,584.00
2019-05-17T05:29:04.257Z,584.00
2019-05-17T05:30:04.888Z,588.00
2019-05-17T05:31:04.257Z,592.00
2019-05-17T05:32:04.228Z,600.00
2019-05-17T05:33:04.219Z,608.00
2019-05-17T05:34:04.239Z,612.00
2019-05-17T05:35:04.195Z,624.00
2019-05-17T05:36:04.209Z,632.00
2019-05-17T05:37:04.176Z,644.00
2019-05-17T05:38:04.398Z,652.00
2019-05-17T05:39:04.160Z,660.00
2019-05-17T05:40:04.984Z,676.00
2019-05-17T05:41:04.158Z,688.00
2019-05-17T05:42:07.880Z,708.00
2019-05-17T05:43:05.109Z,720.00
2019-05-17T05:44:04.100Z,728.00
2019-05-17T05:45:04.090Z,740.00
2019-05-17T05:46:04.121Z,756.00
2019-05-17T05:47:04.070Z,768.00
2019-05-17T05:48:05.099Z,776.00
2019-05-17T05:49:04.088Z,788.00
2019-05-17T05:50:04.887Z,804.00
2019-05-17T05:51:05.955Z,816.00
2019-05-17T05:52:04.021Z,824.00
2019-05-17T05:53:04.038Z,836.00
2019-05-17T05:54:03.993Z,844.00
2019-05-17T05:55:04.145Z,856.00
2019-05-17T05:56:03.998Z,868.00
2019-05-17T05:57:03.963Z,872.00
2019-05-17T05:58:03.944Z,872.00
2019-05-17T05:59:03.940Z,864.00
2019-05-17T06:00:03.939Z,844.00
2019-05-17T06:01:03.950Z,884.00
2019-05-17T06:02:03.910Z,920.00
2019-05-17T06:03:04.295Z,940.00
2019-05-17T06:04:03.890Z,956.00
2019-05-17T06:05:03.879Z,940.00
2019-05-17T06:06:03.889Z,944.00
2019-05-17T06:07:03.897Z,968.00
2019-05-17T06:08:03.846Z,952.00
2019-05-17T06:09:03.835Z,908.00
2019-05-17T06:10:03.819Z,876.00
2019-05-17T06:11:03.867Z,908.00
2019-05-17T06:12:03.805Z,920.00
2019-05-17T06:13:03.801Z,896.00
2019-05-17T06:14:03.854Z,884.00
2019-05-17T06:15:03.774Z,908.00
2019-05-17T06:16:03.783Z,996.00
2019-05-17T06:17:03.757Z,996.00
2019-05-17T06:18:03.743Z,1048.00
2019-05-17T06:19:03.733Z,1056.00
2019-05-17T06:20:03.721Z,1084.00
2019-05-17T06:21:03.732Z,1056.00
2019-05-17T06:22:03.691Z,1036.00
2019-05-17T06:23:03.710Z,1096.00
2019-05-17T06:24:03.670Z,1140.00
2019-05-17T06:25:04.208Z,1164.00
2019-05-17T06:26:04.727Z,1128.00
2019-05-17T06:27:03.646Z,1152.00
2019-05-17T06:28:03.636Z,1128.00
2019-05-17T06:29:03.626Z,1128.00
2019-05-17T06:30:03.613Z,1056.00
2019-05-17T06:31:03.603Z,1064.00
2019-05-17T06:32:03.617Z,1024.00
2019-05-17T06:33:03.603Z,952.00
2019-05-17T06:34:04.194Z,948.00
2019-05-17T06:35:03.562Z,1056.00
2019-05-17T06:36:03.557Z,996.00
2019-05-17T06:37:03.596Z,996.00
2019-05-17T06:38:04.473Z,996.00
2019-05-17T06:39:03.521Z,904.00
2019-05-17T06:40:03.511Z,892.00
2019-05-17T06:41:03.500Z,956.00
2019-05-17T06:42:03.549Z,976.00
2019-05-17T06:43:04.450Z,1008.00
2019-05-17T06:44:04.009Z,1016.00
2019-05-17T06:45:03.460Z,1080.00
2019-05-17T06:46:03.440Z,1084.00
2019-05-17T06:47:03.458Z,980.00
2019-05-17T06:48:03.435Z,968.00
2019-05-17T06:49:03.422Z,1064.00
2019-05-17T06:50:03.506Z,1156.00
2019-05-17T06:51:03.392Z,1188.00
2019-05-17T06:52:03.412Z,1192.00
2019-05-17T06:53:03.392Z,1176.00
2019-05-17T06:54:04.122Z,1180.00
2019-05-17T06:55:05.812Z,1192.00
2019-05-17T06:56:03.340Z,1128.00
2019-05-17T06:57:03.508Z,1060.00
2019-05-17T06:58:03.323Z,1052.00
2019-05-17T06:59:03.309Z,1100.00
2019-05-17T07:00:11.062Z,1144.00
2019-05-17T07:01:04.287Z,1196.00
2019-05-17T07:02:03.300Z,1208.00
2019-05-17T07:03:03.267Z,1228.00
2019-05-17T07:04:03.270Z,1272.00
2019-05-17T07:05:03.246Z,1328.00
2019-05-17T07:06:03.240Z,1404.00
2019-05-17T07:07:04.109Z,1440.00
2019-05-17T07:08:03.235Z,1456.00
2019-05-17T07:09:03.746Z,1440.00
2019-05-17T07:10:03.201Z,1388.00
2019-05-17T07:11:03.176Z,1336.00
2019-05-17T07:12:03.195Z,1336.00
2019-05-17T07:13:03.163Z,1304.00
2019-05-17T07:14:03.153Z,1268.00
2019-05-17T07:15:04.271Z,1288.00
2019-05-17T07:16:03.132Z,1336.00
2019-05-17T07:17:03.164Z,1344.00
2019-05-17T07:18:03.109Z,1320.00
2019-05-17T07:19:03.100Z,1344.00
2019-05-17T07:20:03.091Z,1364.00
2019-05-17T07:21:03.694Z,1384.00
2019-05-17T07:22:03.092Z,1380.00
2019-05-17T07:23:03.057Z,1344.00
2019-05-17T07:24:03.049Z,1312.00
2019-05-17T07:25:03.038Z,1380.00
2019-05-17T07:26:03.027Z,1396.00
2019-05-17T07:27:03.116Z,1364.00
2019-05-17T07:28:03.026Z,1436.00
2019-05-17T07:29:02.993Z,1516.00
2019-05-17T07:30:02.986Z,1560.00
2019-05-17T07:31:02.975Z,1600.00
2019-05-17T07:32:03.035Z,1644.00
2019-05-17T07:33:03.812Z,1656.00
2019-05-17T07:34:02.943Z,1640.00
2019-05-17T07:35:02.931Z,1592.00
2019-05-17T07:36:02.922Z,1516.00
2019-05-17T07:37:02.911Z,1476.00
2019-05-17T07:38:04.693Z,1484.00
2019-05-17T07:39:02.890Z,1476.00
2019-05-17T07:40:05.182Z,1524.00
2019-05-17T07:41:02.869Z,1536.00
2019-05-17T07:42:02.856Z,1548.00
2019-05-17T07:43:10.417Z,1540.00
2019-05-17T07:44:03.838Z,1548.00
2019-05-17T07:45:02.825Z,1564.00
2019-05-17T07:46:02.818Z,1628.00
2019-05-17T07:47:02.797Z,1628.00
2019-05-17T07:48:02.838Z,1660.00
2019-05-17T07:49:02.860Z,1656.00
2019-05-17T07:50:02.800Z,1668.00
2019-05-17T07:51:02.763Z,1724.00
2019-05-17T07:52:02.755Z,1740.00
2019-05-17T07:53:02.763Z,1720.00
2019-05-17T07:54:03.259Z,1804.00
2019-05-17T07:55:03.664Z,1760.00
2019-05-17T07:56:02.716Z,1760.00
2019-05-17T07:57:02.781Z,1832.00
2019-05-17T07:58:02.712Z,1908.00
2019-05-17T07:59:02.679Z,1888.00
2019-05-17T08:00:03.341Z,1884.00
2019-05-17T08:01:02.659Z,2016.00
2019-05-17T08:02:02.640Z,2064.00
2019-05-17T08:03:02.685Z,2048.00
2019-05-17T08:04:02.625Z,2008.00
2019-05-17T08:05:02.608Z,1956.00
2019-05-17T08:06:03.388Z,1980.00
2019-05-17T08:07:02.628Z,2000.00
2019-05-17T08:08:02.608Z,2072.00
2019-05-17T08:09:04.360Z,2088.00
2019-05-17T08:10:02.564Z,2128.00
2019-05-17T08:11:02.545Z,2136.00
2019-05-17T08:12:02.541Z,2124.00
2019-05-17T08:13:02.557Z,2168.00
2019-05-17T08:14:02.514Z,2184.00
2019-05-17T08:15:02.504Z,2208.00
2019-05-17T08:16:02.501Z,2200.00
2019-05-17T08:17:02.491Z,2172.00
2019-05-17T08:18:02.499Z,2192.00
2019-05-17T08:19:02.464Z,2268.00
2019-05-17T08:20:02.476Z,2292.00
2019-05-17T08:21:02.439Z,2280.00
2019-05-17T08:22:02.449Z,2236.00
2019-05-17T08:23:05.056Z,2180.00
2019-05-17T08:24:02.416Z,2172.00
2019-05-17T08:25:02.398Z,2160.00
2019-05-17T08:26:02.388Z,2164.00
2019-05-17T08:27:02.376Z,2168.00
2019-05-17T08:28:02.395Z,2172.00
2019-05-17T08:29:03.256Z,2188.00
2019-05-17T08:30:02.353Z,2204.00
2019-05-17T08:31:02.337Z,2236.00
2019-05-17T08:32:02.325Z,2268.00
2019-05-17T08:33:02.366Z,2300.00
2019-05-17T08:34:02.303Z,2300.00
2019-05-17T08:35:02.293Z,2280.00
2019-05-17T08:36:02.281Z,2248.00
2019-05-17T08:37:02.271Z,2208.00
2019-05-17T08:38:02.792Z,2160.00
2019-05-17T08:39:02.283Z,2152.00
2019-05-17T08:40:02.278Z,2136.00
2019-05-17T08:41:02.222Z,2144.00
2019-05-17T08:42:02.218Z,2168.00
2019-05-17T08:43:02.228Z,2180.00
2019-05-17T08:44:02.199Z,2172.00
2019-05-17T08:45:02.728Z,2180.00
2019-05-17T08:46:02.883Z,2184.00
2019-05-17T08:47:02.727Z,2200.00
2019-05-17T08:48:02.851Z,2240.00
2019-05-17T08:49:02.137Z,2284.00
2019-05-17T08:50:02.128Z,2320.00
2019-05-17T08:51:02.825Z,2348.00
2019-05-17T08:52:02.105Z,2372.00
2019-05-17T08:53:02.096Z,2404.00
2019-05-17T08:54:02.115Z,2424.00
2019-05-17T08:55:02.073Z,2416.00
2019-05-17T08:56:02.081Z,2420.00
2019-05-17T08:57:02.054Z,2476.00
2019-05-17T08:58:02.043Z,2508.00
2019-05-17T08:59:02.074Z,2500.00
2019-05-17T09:00:02.030Z,2448.00
2019-05-17T09:01:02.038Z,2400.00
2019-05-17T09:02:02.721Z,2376.00
2019-05-17T09:03:01.988Z,2404.00
2019-05-17T09:04:02.007Z,2428.00
2019-05-17T09:05:01.994Z,2400.00
2019-05-17T09:06:02.929Z,2476.00
2019-05-17T09:07:03.208Z,2632.00
2019-05-17T09:08:01.925Z,2764.00
2019-05-17T09:09:01.946Z,2816.00
2019-05-17T09:10:02.185Z,2840.00
2019-05-17T09:11:01.898Z,2852.00
2019-05-17T09:12:01.884Z,2896.00
2019-05-17T09:13:01.874Z,2916.00
2019-05-17T09:14:02.330Z,2916.00
2019-05-17T09:15:01.851Z,2920.00
2019-05-17T09:16:01.842Z,2936.00
2019-05-17T09:17:01.837Z,2968.00
2019-05-17T09:18:02.881Z,3000.00
2019-05-17T09:19:01.864Z,3036.00
2019-05-17T09:20:01.819Z,3064.00
2019-05-17T09:21:01.790Z,3080.00
2019-05-17T09:22:01.778Z,3080.00
2019-05-17T09:23:01.768Z,3024.00
2019-05-17T09:24:02.300Z,2964.00
2019-05-17T09:25:01.754Z,2856.00
2019-05-17T09:26:02.407Z,2808.00
2019-05-17T09:27:01.758Z,3000.00
2019-05-17T09:28:01.726Z,3240.00
2019-05-17T09:29:01.767Z,3228.00
2019-05-17T09:30:01.693Z,3244.00
2019-05-17T09:31:01.684Z,3484.00
2019-05-17T09:32:01.710Z,3576.00
2019-05-17T09:33:01.666Z,3616.00
2019-05-17T09:34:01.711Z,3608.00
2019-05-17T09:35:01.642Z,3572.00
2019-05-17T09:36:01.637Z,3512.00
2019-05-17T09:37:01.626Z,3416.00
2019-05-17T09:38:01.631Z,3348.00
2019-05-17T09:39:01.648Z,3436.00
2019-05-17T09:40:03.422Z,3544.00
2019-05-17T09:41:01.570Z,3648.00
2019-05-17T09:42:01.565Z,3672.00
2019-05-17T09:43:01.551Z,3824.00
2019-05-17T09:44:11.744Z,3988.00
2019-05-17T09:45:02.538Z,4124.00
2019-05-17T09:46:01.956Z,4264.00
2019-05-17T09:47:01.518Z,4324.00
2019-05-17T09:48:01.499Z,4380.00
2019-05-17T09:49:01.534Z,4448.00
2019-05-17T09:50:01.499Z,4512.00
2019-05-17T09:51:01.478Z,4620.00
2019-05-17T09:52:01.464Z,4644.00
2019-05-17T09:53:01.446Z,4556.00
2019-05-17T09:54:01.474Z,4372.00
2019-05-17T09:55:03.367Z,4396.00
2019-05-17T09:56:01.413Z,4632.00
2019-05-17T09:57:01.412Z,5052.00
2019-05-17T09:58:01.392Z,5584.00
2019-05-17T09:59:01.388Z,5984.00
2019-05-17T10:00:01.400Z,6288.00
2019-05-17T10:01:01.704Z,6420.00
2019-05-17T10:02:01.352Z,6324.00
2019-05-17T10:03:01.339Z,6408.00
2019-05-17T10:04:01.354Z,6468.00
2019-05-17T10:05:01.684Z,6540.00
2019-05-17T10:06:01.318Z,6700.00
2019-05-17T10:07:01.296Z,6924.00
2019-05-17T10:08:01.292Z,7212.00
2019-05-17T10:09:01.275Z,7380.00
2019-05-17T10:10:01.293Z,7368.00
2019-05-17T10:11:08.426Z,7604.00
2019-05-17T10:12:03.101Z,7424.00
2019-05-17T10:13:01.234Z,6916.00
2019-05-17T10:14:01.885Z,6384.00
2019-05-17T10:15:01.243Z,6800.00
2019-05-17T10:16:01.273Z,8268.00
2019-05-17T10:17:01.227Z,8972.00
2019-05-17T10:18:01.193Z,7792.00
2019-05-17T10:19:01.218Z,9188.00
2019-05-17T10:20:02.026Z,8976.00
2019-05-17T10:21:01.149Z,12752.00
2019-05-17T10:22:01.139Z,10212.00
2019-05-17T10:23:01.128Z,9728.00
2019-05-17T10:24:01.118Z,8908.00
2019-05-17T10:25:01.134Z,9540.00
2019-05-17T10:26:01.096Z,10564.00
2019-05-17T10:27:01.108Z,10140.00
2019-05-17T10:28:01.118Z,9916.00
2019-05-17T10:29:01.067Z,8820.00
2019-05-17T10:30:01.076Z,9824.00
2019-05-17T10:31:02.273Z,8868.00
2019-05-17T10:32:01.034Z,10876.00
2019-05-17T10:33:01.024Z,12496.00
2019-05-17T10:34:01.674Z,12644.00
2019-05-17T10:35:01.668Z,13216.00
2019-05-17T10:36:00.985Z,12760.00
2019-05-17T10:37:00.974Z,4892.00
2019-05-17T10:38:02.963Z,12216.00
2019-05-17T10:39:00.952Z,12088.00
2019-05-17T10:40:00.983Z,12584.00
2019-05-17T10:41:00.932Z,12816.00
2019-05-17T10:42:00.941Z,8080.00
2019-05-17T10:43:00.928Z,6896.00
2019-05-17T10:44:00.905Z,12300.00
2019-05-17T10:45:00.921Z,13024.00
2019-05-17T10:46:00.888Z,7196.00
2019-05-17T10:47:00.879Z,13248.00
2019-05-17T10:48:00.916Z,12836.00
2019-05-17T10:49:00.853Z,12344.00
2019-05-17T10:50:00.875Z,12676.00
2019-05-17T10:51:00.829Z,12928.00
2019-05-17T10:52:00.818Z,10580.00
2019-05-17T10:53:00.823Z,5148.00
2019-05-17T10:54:00.797Z,5712.00
2019-05-17T10:55:00.837Z,12992.00
2019-05-17T10:56:00.910Z,6848.00
2019-05-17T10:57:00.766Z,13344.00
2019-05-17T10:58:00.786Z,13696.00
2019-05-17T10:59:00.743Z,13888.00
2019-05-17T11:00:00.764Z,9732.00
2019-05-17T11:01:00.999Z,8012.00
2019-05-17T11:02:00.731Z,8984.00
2019-05-17T11:03:00.705Z,8392.00
2019-05-17T11:04:00.702Z,9200.00
2019-05-17T11:05:01.030Z,13792.00
2019-05-17T11:06:00.689Z,9668.00
2019-05-17T11:07:01.485Z,5100.00
2019-05-17T11:08:00.652Z,5244.00
2019-05-17T11:09:00.643Z,3316.00
2019-05-17T11:10:00.887Z,2800.00
2019-05-17T11:11:00.611Z,2524.00
2019-05-17T11:12:00.612Z,2376.00
2019-05-17T11:13:02.118Z,2364.00
2019-05-17T11:14:00.588Z,2404.00
2019-05-17T11:15:11.106Z,2420.00
2019-05-17T11:16:01.559Z,2496.00
2019-05-17T11:17:00.549Z,2656.00
2019-05-17T11:18:01.171Z,2884.00
2019-05-17T11:19:00.528Z,3288.00
2019-05-17T11:20:00.579Z,3880.00
2019-05-17T11:21:00.515Z,4396.00
2019-05-17T11:22:00.504Z,4976.00
2019-05-17T11:23:00.494Z,6020.00
2019-05-17T11:24:00.481Z,6464.00
2019-05-17T11:25:00.496Z,6028.00
2019-05-17T11:26:01.184Z,6488.00
2019-05-17T11:27:00.444Z,6552.00
2019-05-17T11:28:01.266Z,6464.00
2019-05-17T11:29:00.423Z,7596.00
2019-05-17T11:30:00.465Z,6396.00
2019-05-17T11:31:00.409Z,6304.00
2019-05-17T11:32:01.156Z,8052.00
2019-05-17T11:33:01.142Z,7992.00
2019-05-17T11:34:00.370Z,5584.00
2019-05-17T11:35:02.045Z,5340.00
2019-05-17T11:36:00.537Z,3544.00
2019-05-17T11:37:00.339Z,3160.00
2019-05-17T11:38:00.330Z,3216.00
2019-05-17T11:39:00.337Z,2964.00
2019-05-17T11:40:00.330Z,2728.00
2019-05-17T11:41:19.562Z,2504.00
2019-05-17T11:42:01.291Z,2352.00
2019-05-17T11:43:00.278Z,2248.00
2019-05-17T11:44:00.264Z,2224.00
2019-05-17T11:45:00.285Z,2272.00
2019-05-17T11:46:00.271Z,2248.00
2019-05-17T11:47:00.235Z,2204.00
2019-05-17T11:48:00.247Z,2204.00
2019-05-17T11:49:00.218Z,2152.00
2019-05-17T11:50:00.224Z,2020.00
2019-05-17T11:51:00.213Z,1928.00
2019-05-17T11:52:00.174Z,1912.00
2019-05-17T11:53:00.822Z,1928.00
2019-05-17T11:54:00.161Z,1996.00
2019-05-17T11:55:00.172Z,2156.00
2019-05-17T11:56:00.211Z,2404.00
2019-05-17T11:57:00.123Z,2852.00
2019-05-17T11:58:00.119Z,3564.00
2019-05-17T11:59:00.110Z,4608.00
2019-05-17T12:00:01.633Z,5432.00
2019-05-17T12:01:00.110Z,5548.00
2019-05-17T12:02:00.092Z,4020.00
2019-05-17T12:03:00.067Z,3556.00
2019-05-17T12:04:00.731Z,3512.00
2019-05-17T12:05:00.045Z,3448.00
2019-05-17T12:06:00.056Z,3268.00
2019-05-17T12:07:00.061Z,3184.00
2019-05-17T12:08:00.007Z,3036.00
2019-05-17T12:09:00.000Z,2828.00
2019-05-17T12:10:00.725Z,2672.00
2019-05-17T12:11:00.170Z,2660.00
2019-05-17T12:11:59.965Z,2880.00
2019-05-17T12:12:59.954Z,3280.00
2019-05-17T12:13:59.949Z,3540.00
2019-05-17T12:14:59.935Z,3520.00
2019-05-17T12:15:59.947Z,3424.00
2019-05-17T12:16:59.913Z,3836.00
2019-05-17T12:17:59.902Z,5212.00
2019-05-17T12:18:59.915Z,5700.00
2019-05-17T12:19:59.901Z,5948.00
2019-05-17T12:20:59.899Z,4120.00
2019-05-17T12:21:59.861Z,4260.00
2019-05-17T12:22:59.849Z,4148.00
2019-05-17T12:23:59.873Z,4080.00
2019-05-17T12:24:59.827Z,3948.00
2019-05-17T12:25:59.849Z,3824.00
2019-05-17T12:26:59.824Z,3792.00
2019-05-17T12:27:59.797Z,3984.00
2019-05-17T12:28:59.785Z,3820.00